createdAt,value
2023-10-26T00:01:34.253Z,15.70
2023-10-26T00:04:02.414Z,15.47
2023-10-26T00:06:30.999Z,15.60
2023-10-26T00:08:59.771Z,14.47
2023-10-26T00:11:28.338Z,15.10
2023-10-26T00:13:56.809Z,14.90
2023-10-26T00:16:26.610Z,13.60
2023-10-26T00:18:55.122Z,13.73
2023-10-26T00:21:23.577Z,12.97
2023-10-26T00:23:52.230Z,13.50
2023-10-26T00:26:20.696Z,12.03
2023-10-26T00:28:49.365Z,11.67
2023-10-26T00:31:17.465Z,11.93
2023-10-26T00:33:47.057Z,12.40
2023-10-26T00:36:15.840Z,13.07
2023-10-26T00:38:44.279Z,12.40
2023-10-26T00:41:12.533Z,11.70
2023-10-26T00:43:40.982Z,11.63
2023-10-26T00:46:11.913Z,11.30
2023-10-26T00:48:41.015Z,12.67
2023-10-26T00:51:10.818Z,11.63
2023-10-26T00:53:42.227Z,10.37
2023-10-26T00:56:13.072Z,11.37
2023-10-26T00:58:41.778Z,11.23
2023-10-26T01:01:10.568Z,10.43
2023-10-26T01:03:40.106Z,11.20
2023-10-26T01:06:09.825Z,11.97
2023-10-26T01:08:39.964Z,11.30
2023-10-26T01:11:08.721Z,11.90
2023-10-26T01:13:37.371Z,9.07
2023-10-26T01:16:06.069Z,10.77
2023-10-26T01:18:34.709Z,11.00
2023-10-26T01:21:03.279Z,10.50
2023-10-26T01:23:32.800Z,10.80
2023-10-26T01:26:01.405Z,10.37
2023-10-26T01:28:29.911Z,10.33
2023-10-26T01:30:59.086Z,10.10
2023-10-26T01:33:27.633Z,10.60
2023-10-26T01:35:56.228Z,9.57
2023-10-26T01:38:24.642Z,10.13
2023-10-26T01:40:54.381Z,9.63
2023-10-26T01:43:22.436Z,8.77
2023-10-26T01:45:50.800Z,10.93
2023-10-26T01:48:19.490Z,10.33
2023-10-26T01:50:47.955Z,9.70
2023-10-26T01:53:16.337Z,11.00
2023-10-26T01:55:44.494Z,9.93
2023-10-26T01:58:14.306Z,11.17
2023-10-26T02:00:42.721Z,10.20
2023-10-26T02:03:11.298Z,11.00
2023-10-26T02:05:39.821Z,11.30
2023-10-26T02:08:08.191Z,10.17
2023-10-26T02:10:36.824Z,9.20
2023-10-26T02:13:05.207Z,10.60
2023-10-26T02:15:35.157Z,9.23
2023-10-26T02:18:04.060Z,10.10
2023-10-26T02:20:32.482Z,9.67
2023-10-26T02:23:01.034Z,9.73
2023-10-26T02:25:29.570Z,10.27
2023-10-26T02:27:58.456Z,9.20
2023-10-26T02:30:27.010Z,9.53
2023-10-26T02:32:56.900Z,9.97
2023-10-26T02:35:25.366Z,10.50
2023-10-26T02:37:54.129Z,9.57
2023-10-26T02:40:22.585Z,9.80
2023-10-26T02:42:50.706Z,9.57
2023-10-26T02:45:18.902Z,9.60
2023-10-26T02:47:47.434Z,10.23
2023-10-26T02:50:17.083Z,10.13
2023-10-26T02:52:45.273Z,9.50
2023-10-26T02:55:13.695Z,9.97
2023-10-26T02:57:42.146Z,10.33
2023-10-26T03:00:13.358Z,11.50
2023-10-26T03:02:41.916Z,12.73
2023-10-26T03:05:10.981Z,11.10
2023-10-26T03:07:40.373Z,11.40
2023-10-26T03:10:09.232Z,11.43
2023-10-26T03:12:37.665Z,12.90
2023-10-26T03:15:06.314Z,11.27
2023-10-26T03:17:34.750Z,12.00
2023-10-26T03:20:03.211Z,12.40
2023-10-26T03:22:31.390Z,12.90
2023-10-26T03:25:01.079Z,12.20
2023-10-26T03:27:29.527Z,12.37
2023-10-26T03:29:58.374Z,12.80
2023-10-26T03:32:26.793Z,12.00
2023-10-26T03:34:55.295Z,12.20
2023-10-26T03:37:23.684Z,11.70
2023-10-26T03:39:52.102Z,10.03
2023-10-26T03:42:21.680Z,10.27
2023-10-26T03:44:50.149Z,11.07
2023-10-26T03:47:19.946Z,10.07
2023-10-26T03:49:52.562Z,9.27
2023-10-26T03:52:21.507Z,9.83
2023-10-26T03:54:49.898Z,10.03
2023-10-26T03:57:18.381Z,9.83
2023-10-26T03:59:47.805Z,10.40
2023-10-26T04:02:16.221Z,9.23
2023-10-26T04:04:44.819Z,9.40
2023-10-26T04:07:13.497Z,9.43
2023-10-26T04:09:42.058Z,10.10
2023-10-26T04:12:10.708Z,9.30
2023-10-26T04:14:39.310Z,9.57
2023-10-26T04:17:09.862Z,9.53
2023-10-26T04:19:38.260Z,8.90
2023-10-26T04:22:07.112Z,8.37
2023-10-26T04:24:35.922Z,8.70
2023-10-26T04:27:05.026Z,8.57
2023-10-26T04:29:33.587Z,8.97
2023-10-26T04:32:01.958Z,9.73
2023-10-26T04:34:32.618Z,8.77
2023-10-26T04:37:01.246Z,8.07
2023-10-26T04:39:29.802Z,8.93
2023-10-26T04:41:57.983Z,8.67
2023-10-26T04:44:26.207Z,8.90
2023-10-26T04:46:54.285Z,8.63
2023-10-26T04:49:22.737Z,9.53
2023-10-26T04:51:52.186Z,9.53
2023-10-26T04:54:20.616Z,8.93
2023-10-26T04:56:49.106Z,8.67
2023-10-26T04:59:17.546Z,9.50
2023-10-26T05:01:46.091Z,9.57
2023-10-26T05:04:14.350Z,8.83
2023-10-26T05:06:42.950Z,9.40
2023-10-26T05:09:12.604Z,8.70
2023-10-26T05:11:42.422Z,9.97
2023-10-26T05:14:11.227Z,9.47
2023-10-26T05:16:39.729Z,10.43
2023-10-26T05:19:08.192Z,10.60
2023-10-26T05:21:36.863Z,10.40
2023-10-26T05:24:05.583Z,8.67
2023-10-26T05:26:35.125Z,8.90
2023-10-26T05:29:05.308Z,9.83
2023-10-26T05:31:33.869Z,10.87
2023-10-26T05:34:02.534Z,10.30
2023-10-26T05:36:31.039Z,10.43
2023-10-26T05:39:00.157Z,11.30
2023-10-26T05:41:28.872Z,11.27
2023-10-26T05:43:58.539Z,11.03
2023-10-26T05:46:27.139Z,12.87
2023-10-26T05:48:55.696Z,11.67
2023-10-26T05:51:24.156Z,11.67
2023-10-26T05:53:52.551Z,10.77
2023-10-26T05:56:20.938Z,13.03
2023-10-26T05:58:51.537Z,12.07
2023-10-26T06:01:21.199Z,12.57
2023-10-26T06:03:49.646Z,12.73
2023-10-26T06:06:18.178Z,11.53
2023-10-26T06:08:47.699Z,12.33
2023-10-26T06:11:17.530Z,11.20
2023-10-26T06:13:48.109Z,12.30
2023-10-26T06:16:18.091Z,11.90
2023-10-26T06:18:47.642Z,11.73
2023-10-26T06:21:16.060Z,10.73
2023-10-26T06:23:45.649Z,10.47
2023-10-26T06:26:14.032Z,10.70
2023-10-26T06:28:42.399Z,10.97
2023-10-26T06:31:11.244Z,10.63
2023-10-26T06:33:39.843Z,10.90
2023-10-26T06:36:11.320Z,9.77
2023-10-26T06:38:40.344Z,10.47
2023-10-26T06:41:10.020Z,10.13
2023-10-26T06:43:38.730Z,9.90
2023-10-26T06:46:07.562Z,9.13
2023-10-26T06:48:36.232Z,9.87
2023-10-26T06:51:07.075Z,10.13
2023-10-26T06:53:37.637Z,9.87
2023-10-26T06:56:12.478Z,9.83
2023-10-26T06:58:43.471Z,10.33
2023-10-26T07:01:20.701Z,10.33
2023-10-26T07:03:50.204Z,10.47
2023-10-26T07:06:18.751Z,10.73
2023-10-26T07:08:50.391Z,10.27
2023-10-26T07:11:24.602Z,10.70
2023-10-26T07:13:53.209Z,10.77
2023-10-26T07:16:21.672Z,10.07
2023-10-26T07:18:50.460Z,10.73
2023-10-26T07:21:19.299Z,11.87
2023-10-26T07:23:49.058Z,11.87
2023-10-26T07:26:20.664Z,11.67
2023-10-26T07:28:49.263Z,12.00
2023-10-26T07:31:22.112Z,11.77
2023-10-26T07:33:51.299Z,12.07
2023-10-26T07:36:20.097Z,11.80
2023-10-26T07:39:46.495Z,11.27
2023-10-26T07:42:08.094Z,11.47
2023-10-26T07:44:27.530Z,11.23
2023-10-26T07:46:56.138Z,13.37
2023-10-26T07:49:24.470Z,12.70
2023-10-26T07:51:52.707Z,11.47
2023-10-26T07:54:22.148Z,12.67
2023-10-26T07:56:50.299Z,13.23
2023-10-26T07:59:18.906Z,12.53
2023-10-26T08:01:48.902Z,11.67
2023-10-26T08:04:17.715Z,12.80
2023-10-26T08:06:46.238Z,12.87
2023-10-26T08:09:14.980Z,13.00
2023-10-26T08:11:44.542Z,11.90
2023-10-26T08:14:34.554Z,13.70
2023-10-26T08:17:01.111Z,13.27
2023-10-26T08:19:29.837Z,12.97
2023-10-26T08:21:58.271Z,13.73
2023-10-26T08:24:27.153Z,13.63
2023-10-26T08:26:56.745Z,14.83
2023-10-26T08:29:28.914Z,14.60
2023-10-26T08:31:58.267Z,14.10
2023-10-26T08:34:26.844Z,13.63
2023-10-26T08:37:13.060Z,14.63
2023-10-26T08:39:44.637Z,13.90
2023-10-26T08:42:16.798Z,13.20
2023-10-26T08:44:45.925Z,14.13
2023-10-26T08:47:18.349Z,14.07
2023-10-26T08:49:55.895Z,14.23
2023-10-26T08:52:28.433Z,13.53
2023-10-26T08:54:57.416Z,13.67
2023-10-26T08:57:27.213Z,14.13
2023-10-26T08:59:55.648Z,13.50
2023-10-26T09:02:23.860Z,14.63
2023-10-26T09:05:05.273Z,13.60
2023-10-26T09:07:33.751Z,13.90
2023-10-26T09:10:02.218Z,13.90
2023-10-26T09:12:31.718Z,14.47
2023-10-26T09:15:00.886Z,14.87
2023-10-26T09:17:30.160Z,15.43
2023-10-26T09:19:58.880Z,15.60
2023-10-26T09:22:39.414Z,14.87
2023-10-26T09:25:12.070Z,14.73
2023-10-26T09:27:42.759Z,14.23
2023-10-26T09:30:25.208Z,15.00
2023-10-26T09:32:53.832Z,14.40
2023-10-26T09:35:29.061Z,13.60
2023-10-26T09:37:58.478Z,13.23
2023-10-26T09:40:28.806Z,13.10
2023-10-26T09:42:59.511Z,12.53
2023-10-26T09:45:28.595Z,12.37
2023-10-26T09:47:57.623Z,11.73
2023-10-26T09:50:26.490Z,12.73
2023-10-26T09:52:56.544Z,11.67
2023-10-26T09:55:25.215Z,10.37
2023-10-26T09:57:57.455Z,11.73
2023-10-26T10:00:33.999Z,12.23
2023-10-26T10:03:12.508Z,11.03
2023-10-26T10:05:41.236Z,12.47
2023-10-26T10:08:09.845Z,13.37
2023-10-26T10:10:38.420Z,14.73
2023-10-26T10:13:07.183Z,13.97
2023-10-26T10:15:42.443Z,13.47
2023-10-26T10:18:11.698Z,13.37
2023-10-26T10:20:41.685Z,14.27
2023-10-26T10:23:10.469Z,14.47
2023-10-26T10:26:19.774Z,13.17
2023-10-26T10:28:52.453Z,15.10
2023-10-26T10:31:44.536Z,13.80
2023-10-26T10:34:17.337Z,14.53
2023-10-26T10:37:11.229Z,14.77
2023-10-26T10:39:39.838Z,15.90
2023-10-26T10:42:12.910Z,14.80
2023-10-26T10:44:43.516Z,12.90
2023-10-26T10:47:13.164Z,13.70
2023-10-26T10:49:41.490Z,15.03
2023-10-26T10:52:16.458Z,16.37
2023-10-26T10:55:02.707Z,17.07
2023-10-26T10:57:33.631Z,18.37
2023-10-26T11:00:01.811Z,19.23
2023-10-26T11:02:31.858Z,19.43
2023-10-26T11:05:15.876Z,20.73
2023-10-26T11:07:48.221Z,22.47
2023-10-26T11:10:16.759Z,21.50
2023-10-26T11:12:52.347Z,22.07
2023-10-26T11:15:20.568Z,22.33
2023-10-26T11:17:50.210Z,21.97
2023-10-26T11:20:38.466Z,20.03
2023-10-26T11:23:07.084Z,21.37
2023-10-26T11:25:35.444Z,19.03
2023-10-26T11:28:04.203Z,22.03
2023-10-26T11:30:32.959Z,19.63
2023-10-26T11:33:08.330Z,19.97
2023-10-26T11:35:44.735Z,19.33
2023-10-26T11:38:13.102Z,18.23
2023-10-26T11:40:44.697Z,19.93
2023-10-26T11:43:12.911Z,19.47
2023-10-26T11:45:49.957Z,19.83
2023-10-26T11:48:30.436Z,22.43
2023-10-26T11:50:58.865Z,18.53
2023-10-26T11:53:27.674Z,18.30
2023-10-26T11:55:56.289Z,18.07
2023-10-26T11:58:24.790Z,18.13
2023-10-26T12:00:53.375Z,16.47
2023-10-26T12:03:22.492Z,17.70
2023-10-26T12:05:52.077Z,16.13
2023-10-26T12:08:20.504Z,15.30
2023-10-26T12:10:48.906Z,14.80
2023-10-26T12:13:16.959Z,15.87
2023-10-26T12:15:45.122Z,17.50
2023-10-26T12:18:13.568Z,16.30
2023-10-26T12:20:42.003Z,15.50
2023-10-26T12:23:11.443Z,15.60
2023-10-26T12:25:41.405Z,15.87
2023-10-26T12:28:19.580Z,16.40
2023-10-26T12:30:51.362Z,15.07
2023-10-26T12:33:20.064Z,15.10
2023-10-26T12:35:48.723Z,14.90
2023-10-26T12:38:20.719Z,13.53
2023-10-26T12:40:49.324Z,14.13
2023-10-26T12:43:17.899Z,12.70
2023-10-26T12:45:46.277Z,13.13
2023-10-26T12:48:14.788Z,13.50
2023-10-26T12:50:42.931Z,12.03
2023-10-26T12:53:11.504Z,12.13
2023-10-26T12:55:41.116Z,11.80
2023-10-26T12:58:09.516Z,12.47
2023-10-26T13:00:38.079Z,12.27
2023-10-26T13:03:06.785Z,12.07
2023-10-26T13:05:35.164Z,12.97
2023-10-26T13:08:04.106Z,12.50
2023-10-26T13:10:32.741Z,11.70
2023-10-26T13:13:04.805Z,10.90
2023-10-26T13:15:33.963Z,10.33
2023-10-26T13:18:02.952Z,10.67
2023-10-26T13:20:31.564Z,8.97
2023-10-26T13:23:00.576Z,8.80
2023-10-26T13:25:29.220Z,9.57
2023-10-26T13:27:58.917Z,9.83
2023-10-26T13:30:28.688Z,9.43
2023-10-26T13:32:57.283Z,9.60
2023-10-26T13:35:30.756Z,9.43
2023-10-26T13:37:58.937Z,9.20
2023-10-26T13:40:27.192Z,9.53
2023-10-26T13:42:55.746Z,9.77
2023-10-26T13:45:24.774Z,8.93
2023-10-26T13:47:55.416Z,9.27
2023-10-26T13:50:24.004Z,7.70
2023-10-26T13:52:52.425Z,8.27
2023-10-26T13:55:20.792Z,8.00
2023-10-26T13:57:48.985Z,9.23
2023-10-26T14:00:17.745Z,9.00
2023-10-26T14:02:46.536Z,8.80
2023-10-26T14:05:30.096Z,8.47
2023-10-26T14:07:59.624Z,6.90
2023-10-26T14:10:28.044Z,7.30
2023-10-26T14:12:56.424Z,8.13
2023-10-26T14:15:25.191Z,7.13
2023-10-26T14:17:53.345Z,7.57
2023-10-26T14:20:22.827Z,8.00
2023-10-26T14:22:51.409Z,7.78
2023-10-26T14:25:19.938Z,8.73
2023-10-26T14:27:48.327Z,9.80
2023-10-26T14:30:16.813Z,11.03
2023-10-26T14:32:45.221Z,10.70
2023-10-26T14:35:14.629Z,9.47
2023-10-26T14:37:50.380Z,9.75
2023-10-26T14:40:19.304Z,8.67
2023-10-26T14:42:48.455Z,9.20
2023-10-26T14:45:17.003Z,8.77
2023-10-26T14:47:45.494Z,8.77
2023-10-26T14:50:13.718Z,8.93
2023-10-26T14:52:43.368Z,8.93
2023-10-26T14:55:11.652Z,9.87
2023-10-26T14:57:39.784Z,8.90
2023-10-26T15:00:09.494Z,8.80
2023-10-26T15:02:37.978Z,9.73
2023-10-26T15:05:10.128Z,9.20
2023-10-26T15:07:38.734Z,9.80
2023-10-26T15:10:23.608Z,9.13
2023-10-26T15:12:54.360Z,8.50
2023-10-26T15:15:22.928Z,9.83
2023-10-26T15:17:52.313Z,8.87
2023-10-26T15:20:20.590Z,10.43
2023-10-26T15:22:48.887Z,11.30
2023-10-26T15:25:18.489Z,10.00
2023-10-26T15:27:46.646Z,9.87
2023-10-26T15:30:16.900Z,10.67
2023-10-26T15:32:45.126Z,10.00
2023-10-26T15:35:13.587Z,10.03
2023-10-26T15:37:41.962Z,10.97
2023-10-26T15:40:13.865Z,8.90
2023-10-26T15:42:43.423Z,10.07
2023-10-26T15:45:12.923Z,10.43
2023-10-26T15:47:41.352Z,9.93
2023-10-26T15:50:10.352Z,10.00
2023-10-26T15:52:39.578Z,8.33
2023-10-26T15:55:08.495Z,10.17
2023-10-26T15:57:38.205Z,9.63
2023-10-26T16:00:10.761Z,10.50
2023-10-26T16:02:39.538Z,9.87
2023-10-26T16:05:08.365Z,10.43
2023-10-26T16:07:37.829Z,10.27
2023-10-26T16:10:06.584Z,13.33
2023-10-26T16:12:35.149Z,12.40
2023-10-26T16:15:03.684Z,10.20
2023-10-26T16:17:37.476Z,11.17
2023-10-26T16:20:06.153Z,11.10
2023-10-26T16:22:34.665Z,9.97
2023-10-26T16:25:04.735Z,9.73
2023-10-26T16:27:34.452Z,11.13
2023-10-26T16:30:02.935Z,10.60
2023-10-26T16:32:33.252Z,8.93
2023-10-26T16:35:01.757Z,9.13
2023-10-26T16:37:30.267Z,9.97
2023-10-26T16:39:58.837Z,10.30
2023-10-26T16:42:26.917Z,10.63
2023-10-26T16:44:55.408Z,11.30
2023-10-26T16:47:23.882Z,10.37
2023-10-26T16:49:53.457Z,7.30
2023-10-26T16:52:21.912Z,9.07
2023-10-26T16:54:50.303Z,10.10
2023-10-26T16:57:18.679Z,9.13
2023-10-26T16:59:48.876Z,9.13
2023-10-26T17:02:17.386Z,8.27
2023-10-26T17:04:47.057Z,9.43
2023-10-26T17:07:16.478Z,7.43
2023-10-26T17:09:44.998Z,9.00
2023-10-26T17:12:13.502Z,9.07
2023-10-26T17:14:41.638Z,6.67
2023-10-26T17:17:10.049Z,6.43
2023-10-26T17:19:39.223Z,7.60
2023-10-26T17:22:07.427Z,6.70
2023-10-26T17:24:38.649Z,8.40
2023-10-26T17:27:07.122Z,7.43
2023-10-26T17:29:36.079Z,9.67
2023-10-26T17:32:04.387Z,10.17
2023-10-26T17:34:34.170Z,10.33
2023-10-26T17:37:04.381Z,10.00
2023-10-26T17:39:32.870Z,10.27
2023-10-26T17:42:02.372Z,11.57
2023-10-26T17:44:31.625Z,10.07
2023-10-26T17:47:00.099Z,10.63
2023-10-26T17:49:28.526Z,11.07
2023-10-26T17:51:56.651Z,9.43
2023-10-26T17:54:25.113Z,11.20
2023-10-26T17:56:53.492Z,11.80
2023-10-26T17:59:23.653Z,12.53
2023-10-26T18:01:51.965Z,12.27
2023-10-26T18:04:20.392Z,14.17
2023-10-26T18:06:48.910Z,12.70
2023-10-26T18:09:17.607Z,13.13
2023-10-26T18:11:46.015Z,13.40
2023-10-26T18:14:14.106Z,14.27
2023-10-26T18:16:43.703Z,13.03
2023-10-26T18:19:12.189Z,12.13
2023-10-26T18:21:40.613Z,12.27
2023-10-26T18:24:09.871Z,12.87
2023-10-26T18:26:40.176Z,13.10
2023-10-26T18:29:08.767Z,13.70
2023-10-26T18:31:36.899Z,13.37
2023-10-26T18:34:06.566Z,13.40
2023-10-26T18:36:35.714Z,13.50
2023-10-26T18:39:04.385Z,12.50
2023-10-26T18:41:33.253Z,14.87
2023-10-26T18:44:01.996Z,15.57
2023-10-26T18:46:30.710Z,16.33
2023-10-26T18:48:58.940Z,15.20
2023-10-26T18:51:28.583Z,16.20
2023-10-26T18:53:57.734Z,16.23
2023-10-26T18:56:26.162Z,13.47
2023-10-26T18:58:56.199Z,14.23
2023-10-26T19:01:26.985Z,14.00
2023-10-26T19:06:28.528Z,15.07
2023-10-26T19:08:57.086Z,12.47
2023-10-26T19:11:25.609Z,13.70
2023-10-26T19:13:54.357Z,15.23
2023-10-26T19:16:23.069Z,15.47
2023-10-26T19:18:51.646Z,15.47
2023-10-26T19:21:20.130Z,14.37
2023-10-26T19:23:49.968Z,14.37
2023-10-26T19:26:18.144Z,16.63
2023-10-26T19:28:46.541Z,15.10
2023-10-26T19:31:15.076Z,13.17
2023-10-26T19:33:46.260Z,13.63
2023-10-26T19:36:14.756Z,12.70
2023-10-26T19:38:43.155Z,12.83
2023-10-26T19:41:16.616Z,11.77
2023-10-26T19:43:45.130Z,11.57
2023-10-26T19:46:13.876Z,12.00
2023-10-26T19:48:42.435Z,13.47
2023-10-26T19:51:10.834Z,13.53
2023-10-26T19:53:39.239Z,13.50
2023-10-26T19:56:08.549Z,13.43
2023-10-26T19:58:38.290Z,14.30
2023-10-26T20:01:07.697Z,13.07
2023-10-26T20:03:36.236Z,14.53
2023-10-26T20:06:08.049Z,16.27
2023-10-26T20:08:37.557Z,15.17
2023-10-26T20:11:06.547Z,14.83
2023-10-26T20:13:35.261Z,16.43
2023-10-26T20:16:05.564Z,14.77
2023-10-26T20:18:39.692Z,14.47
2023-10-26T20:21:08.368Z,16.67
2023-10-26T20:23:36.838Z,14.73
2023-10-26T20:26:05.880Z,15.90
2023-10-26T20:28:34.420Z,16.17
2023-10-26T20:31:04.740Z,16.93
2023-10-26T20:33:33.265Z,15.97
2023-10-26T20:36:01.616Z,18.40
2023-10-26T20:38:30.094Z,16.20
2023-10-26T20:40:58.786Z,15.70
2023-10-26T20:43:27.021Z,16.00
2023-10-26T20:45:58.972Z,16.07
2023-10-26T20:48:30.048Z,14.63
2023-10-26T20:50:59.968Z,14.80
2023-10-26T20:53:29.315Z,15.93
2023-10-26T20:56:00.544Z,14.67
2023-10-26T20:58:29.061Z,16.77
2023-10-26T21:00:57.240Z,16.10
2023-10-26T21:03:25.683Z,14.40
2023-10-26T21:05:55.577Z,14.70
2023-10-26T21:08:24.122Z,14.73
2023-10-26T21:10:52.264Z,16.07
2023-10-26T21:13:20.931Z,14.20
2023-10-26T21:15:49.221Z,14.57
2023-10-26T21:18:17.822Z,14.57
2023-10-26T21:20:46.224Z,14.30
2023-10-26T21:23:15.905Z,14.63
2023-10-26T21:25:44.899Z,15.03
2023-10-26T21:28:13.411Z,16.33
2023-10-26T21:30:42.024Z,14.67
2023-10-26T21:33:10.457Z,15.23
2023-10-26T21:35:39.653Z,15.70
2023-10-26T21:38:08.544Z,15.23
2023-10-26T21:40:39.259Z,14.40
2023-10-26T21:43:07.686Z,15.10
2023-10-26T21:45:37.002Z,15.00
2023-10-26T21:48:05.562Z,13.50
2023-10-26T21:50:34.292Z,15.00
2023-10-26T21:53:02.656Z,16.40
2023-10-26T21:55:31.905Z,16.10
2023-10-26T21:58:01.807Z,16.23
2023-10-26T22:00:30.331Z,14.90
2023-10-26T22:02:59.703Z,14.90
2023-10-26T22:05:28.302Z,14.90
2023-10-26T22:07:56.669Z,14.53
2023-10-26T22:10:25.064Z,14.80
2023-10-26T22:12:53.491Z,13.83
2023-10-26T22:15:23.397Z,13.30
2023-10-26T22:17:51.983Z,14.13
2023-10-26T22:20:20.421Z,14.00
2023-10-26T22:22:48.928Z,14.23
2023-10-26T22:25:17.385Z,13.47
2023-10-26T22:27:45.777Z,13.20
2023-10-26T22:30:14.618Z,13.10
2023-10-26T22:32:45.066Z,14.23
2023-10-26T22:35:13.613Z,13.73
2023-10-26T22:37:42.066Z,15.20
2023-10-26T22:40:10.998Z,13.13
2023-10-26T22:42:39.484Z,12.33
2023-10-26T22:45:08.766Z,13.00
2023-10-26T22:47:37.441Z,11.63
2023-10-26T22:50:08.449Z,12.03
2023-10-26T22:52:36.965Z,12.00
2023-10-26T22:55:05.597Z,12.13
2023-10-26T22:57:33.844Z,12.93
2023-10-26T23:00:01.932Z,12.63
2023-10-26T23:02:30.306Z,13.27
2023-10-26T23:05:00.072Z,13.20
2023-10-26T23:07:29.585Z,14.07
2023-10-26T23:09:57.865Z,12.50
2023-10-26T23:12:26.261Z,12.80
2023-10-26T23:14:54.654Z,13.20
2023-10-26T23:17:23.067Z,12.03
2023-10-26T23:19:52.662Z,12.13
2023-10-26T23:22:21.215Z,11.90
2023-10-26T23:24:50.794Z,10.43
2023-10-26T23:27:19.029Z,11.87
2023-10-26T23:29:47.499Z,11.07
2023-10-26T23:32:15.988Z,10.97
2023-10-26T23:34:44.647Z,12.13
2023-10-26T23:37:14.702Z,10.37
2023-10-26T23:39:42.885Z,10.80
2023-10-26T23:42:12.553Z,10.93
2023-10-26T23:44:40.942Z,10.00
2023-10-26T23:47:09.505Z,11.03
2023-10-26T23:49:37.965Z,10.57
2023-10-26T23:52:07.121Z,10.70
2023-10-26T23:54:35.204Z,10.10
2023-10-26T23:57:03.343Z,9.23
2023-10-26T23:59:32.831Z,10.20
